createdAt,value
2019-02-07T00:01:29.783Z,18.10
2019-02-07T00:03:58.635Z,19.20
2019-02-07T00:06:27.785Z,28.40
2019-02-07T00:08:58.267Z,18.13
2019-02-07T00:11:27.343Z,17.60
2019-02-07T00:13:56.953Z,17.60
2019-02-07T00:16:26.341Z,21.10
2019-02-07T00:19:02.469Z,20.23
2019-02-07T00:21:33.911Z,18.87
2019-02-07T00:24:06.022Z,18.43
2019-02-07T00:26:35.307Z,17.27
2019-02-07T00:29:06.084Z,14.30
2019-02-07T00:31:35.371Z,18.37
2019-02-07T00:34:04.967Z,14.93
2019-02-07T00:36:36.424Z,17.87
2019-02-07T00:39:07.967Z,14.80
2019-02-07T00:41:40.648Z,15.00
2019-02-07T00:44:09.745Z,21.60
2019-02-07T00:46:38.918Z,18.20
2019-02-07T00:49:10.051Z,14.33
2019-02-07T00:51:39.138Z,10.23
2019-02-07T00:54:09.571Z,18.00
2019-02-07T00:56:41.873Z,14.03
2019-02-07T00:59:11.049Z,19.57
2019-02-07T01:01:40.182Z,16.60
2019-02-07T01:04:11.207Z,17.47
2019-02-07T01:06:46.491Z,16.83
2019-02-07T01:09:11.723Z,13.30
2019-02-07T01:11:41.132Z,20.93
2019-02-07T01:14:13.049Z,13.60
2019-02-07T01:16:42.565Z,16.67
2019-02-07T01:19:11.985Z,16.03
2019-02-07T01:21:41.095Z,12.53
2019-02-07T01:24:12.690Z,16.53
2019-02-07T01:26:41.780Z,18.17
2019-02-07T01:29:12.513Z,23.43
2019-02-07T01:31:46.844Z,17.10
2019-02-07T01:34:18.957Z,16.17
2019-02-07T01:36:48.073Z,16.47
2019-02-07T01:39:17.486Z,15.87
2019-02-07T01:41:50.492Z,16.73
2019-02-07T01:44:24.583Z,17.83
2019-02-07T01:46:55.178Z,13.40
2019-02-07T01:49:24.657Z,12.80
2019-02-07T01:51:55.237Z,15.93
2019-02-07T01:54:24.655Z,18.00
2019-02-07T01:56:54.844Z,19.07
2019-02-07T01:59:28.443Z,20.63
2019-02-07T02:02:01.534Z,16.87
2019-02-07T02:04:30.745Z,15.30
2019-02-07T02:06:59.848Z,23.10
2019-02-07T02:09:29.051Z,19.57
2019-02-07T02:11:59.311Z,18.73
2019-02-07T02:14:49.315Z,21.20
2019-02-07T02:17:24.509Z,16.07
2019-02-07T02:19:53.556Z,17.37
2019-02-07T02:22:24.599Z,13.53
2019-02-07T02:24:56.526Z,11.17
2019-02-07T02:27:26.102Z,9.87
2019-02-07T02:29:55.345Z,20.00
2019-02-07T02:32:24.720Z,14.87
2019-02-07T02:34:53.852Z,15.70
2019-02-07T02:37:24.080Z,13.13
2019-02-07T02:39:53.368Z,16.33
2019-02-07T02:42:22.745Z,19.77
2019-02-07T02:44:55.326Z,16.93
2019-02-07T02:47:22.874Z,15.07
2019-02-07T02:49:54.494Z,14.60
2019-02-07T02:52:30.829Z,14.07
2019-02-07T02:55:01.492Z,14.63
2019-02-07T02:57:33.409Z,11.00
2019-02-07T03:00:04.135Z,20.40
2019-02-07T03:03:01.259Z,15.90
2019-02-07T03:05:49.326Z,16.60
2019-02-07T03:08:41.237Z,16.13
2019-02-07T03:11:32.317Z,14.60
2019-02-07T03:14:26.399Z,15.63
2019-02-07T03:17:18.619Z,13.23
2019-02-07T03:20:05.424Z,15.93
2019-02-07T03:23:01.591Z,14.53
2019-02-07T03:25:58.860Z,16.87
2019-02-07T03:29:02.340Z,18.13
2019-02-07T03:32:01.427Z,18.13
2019-02-07T03:35:01.900Z,16.50
2019-02-07T03:37:53.318Z,16.43
2019-02-07T03:40:47.878Z,14.10
2019-02-07T03:43:46.800Z,13.97
2019-02-07T03:46:38.344Z,13.13
2019-02-07T03:49:19.919Z,11.60
2019-02-07T03:52:00.342Z,10.93
2019-02-07T03:54:47.780Z,12.50
2019-02-07T03:57:44.343Z,14.07
2019-02-07T04:00:23.721Z,14.73
2019-02-07T04:03:16.064Z,11.27
2019-02-07T04:06:24.107Z,13.87
2019-02-07T04:09:14.738Z,10.87
2019-02-07T04:12:03.327Z,16.53
2019-02-07T04:14:52.905Z,13.10
2019-02-07T04:17:47.332Z,13.50
2019-02-07T04:20:32.078Z,10.60
2019-02-07T04:23:07.299Z,13.33
2019-02-07T04:26:17.279Z,13.13
2019-02-07T04:29:15.828Z,20.03
2019-02-07T04:32:06.355Z,13.90
2019-02-07T04:34:48.954Z,12.27
2019-02-07T04:37:25.071Z,9.73
2019-02-07T04:40:14.802Z,23.70
2019-02-07T04:43:06.159Z,13.03
2019-02-07T04:45:56.153Z,13.93
2019-02-07T04:48:42.054Z,14.77
2019-02-07T04:51:28.726Z,13.17
2019-02-07T04:54:28.884Z,12.20
2019-02-07T04:57:13.132Z,12.33
2019-02-07T05:00:19.818Z,10.57
2019-02-07T05:03:08.814Z,14.37
2019-02-07T05:05:55.801Z,10.73
2019-02-07T05:08:31.324Z,18.33
2019-02-07T05:11:18.397Z,13.33
2019-02-07T05:14:10.955Z,9.93
2019-02-07T05:17:00.820Z,10.43
2019-02-07T05:20:02.089Z,13.67
2019-02-07T05:23:02.709Z,15.33
2019-02-07T05:25:51.564Z,13.10
2019-02-07T05:28:47.839Z,9.70
2019-02-07T05:31:26.638Z,10.77
2019-02-07T05:34:26.541Z,11.03
2019-02-07T05:37:27.892Z,11.07
2019-02-07T05:40:22.526Z,18.77
2019-02-07T05:43:15.655Z,12.57
2019-02-07T05:46:11.334Z,13.30
2019-02-07T05:48:58.170Z,16.50
2019-02-07T05:51:41.193Z,16.40
2019-02-07T05:54:41.490Z,13.60
2019-02-07T05:57:21.146Z,15.30
2019-02-07T06:00:09.966Z,15.20
2019-02-07T06:02:52.200Z,13.47
2019-02-07T06:05:51.261Z,13.73
2019-02-07T06:08:37.497Z,10.70
2019-02-07T06:11:41.328Z,14.33
2019-02-07T06:14:33.790Z,10.30
2019-02-07T06:17:25.231Z,13.80
2019-02-07T06:20:25.306Z,9.30
2019-02-07T06:23:11.516Z,19.57
2019-02-07T06:25:51.371Z,14.10
2019-02-07T06:28:47.516Z,15.00
2019-02-07T06:31:38.182Z,14.47
2019-02-07T06:34:38.463Z,15.13
2019-02-07T06:37:41.808Z,15.97
2019-02-07T06:40:44.184Z,15.23
2019-02-07T06:43:32.315Z,13.77
2019-02-07T06:46:38.644Z,20.60
2019-02-07T06:49:25.572Z,15.27
2019-02-07T06:52:19.540Z,9.10
2019-02-07T06:55:12.389Z,14.97
2019-02-07T06:58:03.375Z,10.17
2019-02-07T07:01:01.103Z,12.63
2019-02-07T07:03:52.543Z,13.30
2019-02-07T07:06:46.239Z,8.67
2019-02-07T07:09:40.870Z,7.90
2019-02-07T07:12:34.963Z,16.30
2019-02-07T07:15:22.290Z,9.63
2019-02-07T07:18:11.458Z,13.33
2019-02-07T07:21:03.106Z,14.60
2019-02-07T07:23:54.521Z,11.87
2019-02-07T07:26:43.020Z,12.50
2019-02-07T07:29:20.085Z,16.00
2019-02-07T07:32:08.445Z,13.00
2019-02-07T07:35:05.116Z,14.73
2019-02-07T07:37:48.417Z,9.67
2019-02-07T07:40:41.452Z,13.60
2019-02-07T07:43:30.499Z,11.47
2019-02-07T07:46:19.342Z,8.00
2019-02-07T07:49:19.747Z,7.50
2019-02-07T07:52:04.313Z,18.33
2019-02-07T07:55:02.946Z,12.50
2019-02-07T07:58:04.707Z,13.30
2019-02-07T08:01:05.050Z,10.53
2019-02-07T08:04:02.160Z,18.03
2019-02-07T08:10:12.056Z,16.63
2019-02-07T08:12:50.476Z,19.07
2019-02-07T08:15:31.532Z,26.77
2019-02-07T08:18:27.109Z,21.40
2019-02-07T08:21:26.796Z,22.13
2019-02-07T08:24:11.824Z,16.20
2019-02-07T08:27:01.214Z,17.25
2019-02-07T08:29:52.511Z,15.10
2019-02-07T08:32:43.034Z,16.50
2019-02-07T08:35:31.271Z,9.37
2019-02-07T08:38:23.540Z,14.63
2019-02-07T08:41:13.292Z,10.27
2019-02-07T08:44:20.324Z,14.03
2019-02-07T08:46:59.437Z,9.17
2019-02-07T08:49:52.357Z,11.30
2019-02-07T08:52:43.672Z,11.93
2019-02-07T08:55:35.963Z,7.43
2019-02-07T08:58:23.361Z,12.03
2019-02-07T09:01:14.467Z,11.90
2019-02-07T09:04:14.347Z,9.10
2019-02-07T09:07:01.597Z,11.47
2019-02-07T09:09:40.006Z,12.93
2019-02-07T09:12:26.876Z,10.13
2019-02-07T09:15:15.005Z,14.73
2019-02-07T09:18:10.029Z,10.33
2019-02-07T09:21:08.746Z,11.17
2019-02-07T09:24:00.137Z,5.07
2019-02-07T09:26:59.783Z,11.67
2019-02-07T09:29:50.425Z,8.43
2019-02-07T09:32:37.299Z,8.63
2019-02-07T09:35:24.887Z,8.50
2019-02-07T09:38:25.735Z,12.43
2019-02-07T09:41:13.738Z,10.23
2019-02-07T09:44:14.227Z,9.17
2019-02-07T09:47:26.777Z,13.20
2019-02-07T09:50:29.868Z,15.50
2019-02-07T09:53:24.013Z,11.97
2019-02-07T09:56:01.283Z,9.57
2019-02-07T09:58:51.319Z,12.43
2019-02-07T10:01:59.247Z,13.80
2019-02-07T10:04:52.352Z,14.33
2019-02-07T10:07:34.889Z,14.27
2019-02-07T10:10:28.685Z,15.80
2019-02-07T10:17:02.835Z,15.00
2019-02-07T10:19:55.731Z,17.90
2019-02-07T10:22:35.876Z,12.60
2019-02-07T10:25:45.841Z,12.63
2019-02-07T10:28:32.934Z,11.70
2019-02-07T10:31:15.455Z,12.23
2019-02-07T10:34:02.794Z,13.10
2019-02-07T10:36:48.758Z,14.07
2019-02-07T10:39:37.457Z,13.20
2019-02-07T10:42:28.464Z,11.50
2019-02-07T10:45:32.204Z,18.57
2019-02-07T10:48:26.248Z,9.23
2019-02-07T10:51:15.976Z,10.57
2019-02-07T10:53:57.725Z,12.67
2019-02-07T10:56:38.259Z,17.53
2019-02-07T10:59:32.192Z,14.70
2019-02-07T11:02:18.345Z,17.23
2019-02-07T11:05:05.789Z,13.63
2019-02-07T11:07:54.044Z,22.00
2019-02-07T11:10:46.513Z,12.70
2019-02-07T11:13:43.719Z,14.47
2019-02-07T11:16:35.935Z,17.80
2019-02-07T11:19:23.691Z,16.93
2019-02-07T11:22:18.540Z,22.57
2019-02-07T11:25:05.291Z,18.00
2019-02-07T11:28:10.919Z,23.50
2019-02-07T11:30:58.398Z,14.43
2019-02-07T11:33:39.909Z,20.43
2019-02-07T11:36:33.854Z,15.83
2019-02-07T11:39:29.657Z,17.23
2019-02-07T11:42:19.815Z,20.37
2019-02-07T11:45:09.376Z,18.33
2019-02-07T11:48:01.643Z,14.80
2019-02-07T11:50:51.914Z,24.70
2019-02-07T11:53:30.021Z,21.20
2019-02-07T11:56:19.905Z,18.27
2019-02-07T11:59:22.273Z,19.37
2019-02-07T12:02:19.731Z,14.10
2019-02-07T12:05:08.374Z,22.02
2019-02-07T12:07:59.509Z,25.03
2019-02-07T12:10:47.666Z,21.93
2019-02-07T12:13:35.369Z,17.63
2019-02-07T12:16:40.632Z,16.80
2019-02-07T12:19:37.835Z,20.03
2019-02-07T12:22:27.547Z,17.43
2019-02-07T12:25:19.815Z,19.63
2019-02-07T12:28:23.261Z,24.33
2019-02-07T12:31:10.958Z,18.47
2019-02-07T12:34:02.154Z,18.90
2019-02-07T12:36:43.661Z,14.20
2019-02-07T12:39:31.484Z,13.27
2019-02-07T12:42:27.370Z,18.63
2019-02-07T12:45:37.856Z,17.57
2019-02-07T12:48:28.055Z,12.50
2019-02-07T12:51:16.586Z,9.20
2019-02-07T12:54:16.711Z,11.80
2019-02-07T12:57:13.027Z,14.17
2019-02-07T13:00:16.543Z,16.80
2019-02-07T13:03:19.934Z,16.47
2019-02-07T13:06:08.280Z,24.60
2019-02-07T13:08:46.300Z,19.43
2019-02-07T13:11:47.408Z,18.23
2019-02-07T13:14:45.641Z,10.37
2019-02-07T13:17:39.602Z,8.80
2019-02-07T13:20:30.216Z,11.13
2019-02-07T13:23:36.807Z,8.50
2019-02-07T13:26:25.273Z,11.23
2019-02-07T13:29:26.154Z,11.57
2019-02-07T13:32:31.692Z,11.13
2019-02-07T13:35:18.170Z,8.70
2019-02-07T13:38:04.687Z,11.20
2019-02-07T13:40:48.496Z,7.50
2019-02-07T13:43:45.876Z,5.60
2019-02-07T13:46:39.900Z,5.07
2019-02-07T13:49:26.587Z,4.50
2019-02-07T13:52:22.870Z,4.80
2019-02-07T13:55:11.241Z,3.70
2019-02-07T13:57:57.987Z,3.60
2019-02-07T14:00:47.318Z,3.20
2019-02-07T14:03:34.284Z,6.83
2019-02-07T14:06:31.254Z,2.70
2019-02-07T14:09:23.101Z,4.17
2019-02-07T14:12:11.886Z,8.47
2019-02-07T14:14:52.970Z,2.00
2019-02-07T14:17:42.766Z,2.33
2019-02-07T14:20:30.118Z,2.37
2019-02-07T14:23:18.791Z,1.83
2019-02-07T14:25:56.718Z,4.60
2019-02-07T14:28:54.676Z,6.13
2019-02-07T14:31:42.389Z,3.00
2019-02-07T14:34:33.948Z,1.77
2019-02-07T14:37:19.874Z,2.30
2019-02-07T14:40:20.941Z,1.53
2019-02-07T14:43:01.731Z,5.30
2019-02-07T14:46:02.429Z,2.80
2019-02-07T14:48:34.824Z,5.30
2019-02-07T14:51:05.413Z,3.63
2019-02-07T14:53:39.263Z,6.70
2019-02-07T14:56:13.964Z,4.73
2019-02-07T14:58:42.902Z,6.17
2019-02-07T15:01:12.120Z,4.43
2019-02-07T15:03:41.703Z,4.50
2019-02-07T15:06:14.091Z,4.20
2019-02-07T15:08:43.600Z,2.70
2019-02-07T15:11:13.109Z,5.73
2019-02-07T15:13:42.319Z,4.73
2019-02-07T15:16:12.388Z,2.40
2019-02-07T15:18:41.639Z,4.47
2019-02-07T15:21:11.903Z,4.93
2019-02-07T15:23:44.421Z,4.13
2019-02-07T15:26:14.854Z,4.43
2019-02-07T15:28:44.541Z,8.97
2019-02-07T15:31:13.736Z,4.30
2019-02-07T15:33:42.921Z,3.17
2019-02-07T15:36:15.023Z,4.13
2019-02-07T15:38:44.284Z,6.70
2019-02-07T15:41:13.437Z,6.43
2019-02-07T15:43:48.073Z,7.47
2019-02-07T15:46:17.318Z,8.40
2019-02-07T15:48:47.283Z,6.53
2019-02-07T15:51:22.143Z,10.70
2019-02-07T15:53:51.321Z,12.00
2019-02-07T15:56:24.919Z,5.20
2019-02-07T15:59:18.310Z,7.87
2019-02-07T16:01:58.979Z,8.17
2019-02-07T16:04:35.829Z,5.67
2019-02-07T16:07:08.555Z,5.57
2019-02-07T16:09:38.503Z,7.43
2019-02-07T16:12:07.715Z,9.67
2019-02-07T16:14:37.067Z,5.30
2019-02-07T16:17:06.234Z,3.70
2019-02-07T16:19:35.606Z,7.37
2019-02-07T16:22:08.533Z,4.23
2019-02-07T16:24:38.071Z,4.23
2019-02-07T16:27:08.641Z,3.70
2019-02-07T16:29:41.238Z,4.50
2019-02-07T16:32:11.645Z,5.03
2019-02-07T16:34:40.774Z,8.20
2019-02-07T16:37:14.635Z,3.50
2019-02-07T16:39:45.365Z,9.17
2019-02-07T16:42:15.506Z,3.73
2019-02-07T16:44:44.634Z,4.07
2019-02-07T16:47:13.754Z,4.50
2019-02-07T16:49:42.920Z,3.30
2019-02-07T16:52:12.226Z,3.30
2019-02-07T16:54:41.824Z,5.47
2019-02-07T16:57:12.346Z,4.40
2019-02-07T16:59:42.619Z,6.07
2019-02-07T17:02:22.392Z,5.50
2019-02-07T17:04:54.357Z,7.87
2019-02-07T17:07:24.618Z,6.50
2019-02-07T17:09:54.210Z,8.00
2019-02-07T17:12:23.766Z,10.93
2019-02-07T17:14:59.230Z,6.03
2019-02-07T17:17:29.373Z,4.90
2019-02-07T17:19:58.964Z,5.90
2019-02-07T17:22:29.896Z,5.03
2019-02-07T17:25:01.312Z,5.83
2019-02-07T17:27:30.569Z,5.43
2019-02-07T17:29:59.733Z,2.90
2019-02-07T17:32:30.721Z,3.30
2019-02-07T17:34:59.844Z,3.80
2019-02-07T17:37:30.815Z,4.13
2019-02-07T17:40:01.347Z,4.07
2019-02-07T17:42:30.963Z,6.57
2019-02-07T17:45:00.555Z,4.97
2019-02-07T17:47:36.815Z,9.33
2019-02-07T17:50:15.617Z,4.90
2019-02-07T17:52:45.969Z,3.90
2019-02-07T17:55:18.777Z,6.80
2019-02-07T17:57:52.576Z,3.47
2019-02-07T18:00:31.809Z,4.90
2019-02-07T18:03:02.218Z,10.67
2019-02-07T18:05:34.793Z,5.83
2019-02-07T18:08:07.504Z,5.23
2019-02-07T18:10:36.697Z,5.70
2019-02-07T18:13:09.090Z,6.80
2019-02-07T18:15:42.869Z,7.30
2019-02-07T18:18:12.131Z,6.67
2019-02-07T18:20:43.934Z,6.60
2019-02-07T18:23:14.474Z,10.93
2019-02-07T18:25:43.792Z,5.60
2019-02-07T18:28:17.430Z,6.23
2019-02-07T18:30:47.571Z,10.00
2019-02-07T18:33:16.733Z,5.50
2019-02-07T18:35:50.678Z,6.87
2019-02-07T18:38:19.818Z,6.60
2019-02-07T18:40:49.064Z,10.80
2019-02-07T18:43:18.462Z,10.20
2019-02-07T18:45:47.636Z,8.03
2019-02-07T18:48:20.651Z,6.20
2019-02-07T18:50:50.746Z,4.13
2019-02-07T18:53:19.969Z,3.70
2019-02-07T18:55:49.135Z,4.90
2019-02-07T18:58:27.211Z,3.97
2019-02-07T19:00:57.432Z,2.63
2019-02-07T19:03:29.314Z,3.70
2019-02-07T19:05:59.472Z,4.73
2019-02-07T19:08:28.653Z,4.00
2019-02-07T19:11:06.242Z,3.97
2019-02-07T19:13:36.512Z,3.30
2019-02-07T19:16:14.346Z,4.30
2019-02-07T19:18:44.248Z,3.20
2019-02-07T19:21:15.657Z,4.47
2019-02-07T19:23:44.478Z,7.17
2019-02-07T19:26:14.945Z,3.00
2019-02-07T19:28:45.610Z,5.67
2019-02-07T19:31:17.060Z,3.30
2019-02-07T19:33:48.168Z,4.63
2019-02-07T19:36:17.835Z,4.33
2019-02-07T19:38:48.156Z,4.03
2019-02-07T19:41:17.397Z,5.87
2019-02-07T19:43:51.151Z,5.33
2019-02-07T19:46:20.092Z,5.37
2019-02-07T19:48:51.338Z,4.30
2019-02-07T19:51:23.199Z,3.63
2019-02-07T19:53:52.342Z,9.00
2019-02-07T19:56:21.580Z,4.20
2019-02-07T19:58:54.128Z,6.80
2019-02-07T20:01:23.675Z,5.63
2019-02-07T20:03:54.465Z,4.83
2019-02-07T20:06:23.615Z,9.27
2019-02-07T20:08:52.757Z,8.40
2019-02-07T20:11:24.054Z,7.47
2019-02-07T20:13:55.925Z,15.60
2019-02-07T20:16:27.413Z,13.50
2019-02-07T20:18:57.277Z,16.20
2019-02-07T20:21:26.861Z,7.50
2019-02-07T20:23:56.301Z,10.70
2019-02-07T20:26:25.484Z,8.00
2019-02-07T20:28:56.382Z,6.80
2019-02-07T20:31:26.338Z,4.00
2019-02-07T20:33:55.447Z,5.90
2019-02-07T20:36:24.602Z,5.50
2019-02-07T20:38:54.880Z,3.90
2019-02-07T20:41:29.341Z,4.87
2019-02-07T20:44:01.289Z,4.07
2019-02-07T20:46:31.018Z,4.63
2019-02-07T20:49:06.120Z,4.00
2019-02-07T20:51:37.643Z,8.33
2019-02-07T20:54:08.570Z,7.20
2019-02-07T20:56:37.792Z,6.27
2019-02-07T20:59:06.941Z,5.70
2019-02-07T21:01:37.640Z,7.03
2019-02-07T21:04:06.928Z,7.00
2019-02-07T21:06:38.062Z,5.80
2019-02-07T21:09:13.316Z,5.63
2019-02-07T21:11:42.667Z,5.57
2019-02-07T21:14:14.367Z,5.03
2019-02-07T21:16:45.183Z,6.37
2019-02-07T21:19:14.411Z,3.43
2019-02-07T21:21:43.757Z,4.80
2019-02-07T21:24:14.901Z,11.20
2019-02-07T21:26:44.086Z,6.17
2019-02-07T21:29:14.269Z,6.33
2019-02-07T21:31:43.621Z,7.60
2019-02-07T21:34:12.782Z,6.10
2019-02-07T21:36:41.900Z,8.83
2019-02-07T21:39:11.852Z,6.77
2019-02-07T21:41:40.986Z,3.80
2019-02-07T21:44:10.185Z,5.20
2019-02-07T21:46:39.819Z,10.90
2019-02-07T21:49:12.010Z,5.77
2019-02-07T21:51:41.301Z,6.80
2019-02-07T21:54:13.801Z,4.63
2019-02-07T21:56:46.567Z,4.27
2019-02-07T21:59:15.686Z,4.20
2019-02-07T22:01:50.379Z,12.80
2019-02-07T22:04:19.514Z,6.83
2019-02-07T22:06:50.006Z,4.90
2019-02-07T22:09:20.721Z,5.07
2019-02-07T22:11:50.036Z,5.37
2019-02-07T22:14:21.581Z,3.87
2019-02-07T22:16:53.902Z,4.13
2019-02-07T22:19:23.104Z,5.70
2019-02-07T22:21:54.474Z,7.40
2019-02-07T22:24:25.017Z,9.13
2019-02-07T22:26:54.153Z,4.77
2019-02-07T22:29:23.319Z,6.67
2019-02-07T22:31:52.552Z,3.80
2019-02-07T22:34:23.031Z,5.30
2019-02-07T22:36:55.238Z,5.93
2019-02-07T22:39:25.831Z,5.27
2019-02-07T22:41:54.945Z,5.07
2019-02-07T22:44:26.613Z,6.90
2019-02-07T22:46:55.787Z,7.97
2019-02-07T22:49:24.956Z,6.30
2019-02-07T22:51:55.105Z,7.03
2019-02-07T22:54:27.839Z,7.97
2019-02-07T22:57:04.819Z,7.73
2019-02-07T22:59:34.058Z,12.80
2019-02-07T23:02:03.901Z,6.43
2019-02-07T23:04:35.239Z,9.43
2019-02-07T23:07:07.141Z,10.17
2019-02-07T23:09:36.882Z,8.10
2019-02-07T23:12:07.736Z,7.13
2019-02-07T23:14:42.309Z,5.83
2019-02-07T23:17:11.740Z,7.00
2019-02-07T23:19:44.398Z,8.80
2019-02-07T23:22:14.004Z,5.40
2019-02-07T23:24:45.762Z,6.30
2019-02-07T23:27:14.917Z,5.83
2019-02-07T23:29:44.728Z,6.30
2019-02-07T23:32:13.834Z,9.57
2019-02-07T23:34:43.017Z,11.23
2019-02-07T23:37:13.946Z,11.70
2019-02-07T23:39:45.091Z,7.60
2019-02-07T23:42:23.050Z,7.37
2019-02-07T23:44:52.528Z,6.63
2019-02-07T23:47:24.054Z,8.07
2019-02-07T23:49:57.723Z,6.30
2019-02-07T23:52:30.646Z,7.33
2019-02-07T23:54:59.811Z,5.67
2019-02-07T23:57:31.436Z,6.33
